createdAt,value
2019-03-10T00:00:46.731Z,977.90
2019-03-10T00:01:46.754Z,977.85
2019-03-10T00:02:46.702Z,977.87
2019-03-10T00:03:47.802Z,977.80
2019-03-10T00:04:46.703Z,977.81
2019-03-10T00:05:46.677Z,977.88
2019-03-10T00:06:46.683Z,977.89
2019-03-10T00:07:46.656Z,977.90
2019-03-10T00:08:48.676Z,977.91
2019-03-10T00:09:46.650Z,977.93
2019-03-10T00:10:46.653Z,977.94
2019-03-10T00:11:46.605Z,978.00
2019-03-10T00:12:47.617Z,978.00
2019-03-10T00:13:46.586Z,977.99
2019-03-10T00:14:46.677Z,978.03
2019-03-10T00:15:46.556Z,978.08
2019-03-10T00:16:46.558Z,978.06
2019-03-10T00:17:46.631Z,978.04
2019-03-10T00:18:46.539Z,978.04
2019-03-10T00:19:46.609Z,977.95
2019-03-10T00:20:46.509Z,978.00
2019-03-10T00:21:46.501Z,978.00
2019-03-10T00:22:46.490Z,978.02
2019-03-10T00:23:46.553Z,978.03
2019-03-10T00:24:46.481Z,978.03
2019-03-10T00:25:47.502Z,977.97
2019-03-10T00:26:46.452Z,978.02
2019-03-10T00:27:46.432Z,978.01
2019-03-10T00:28:46.422Z,978.05
2019-03-10T00:29:47.523Z,978.05
2019-03-10T00:30:46.404Z,978.01
2019-03-10T00:31:46.494Z,977.98
2019-03-10T00:32:46.454Z,978.00
2019-03-10T00:33:46.368Z,978.01
2019-03-10T00:34:46.435Z,978.04
2019-03-10T00:35:46.337Z,978.01
2019-03-10T00:36:46.426Z,977.98
2019-03-10T00:37:46.316Z,978.01
2019-03-10T00:38:46.367Z,978.03
2019-03-10T00:39:46.309Z,978.02
2019-03-10T00:40:47.319Z,977.97
2019-03-10T00:41:46.269Z,977.95
2019-03-10T00:42:46.338Z,978.02
2019-03-10T00:43:47.328Z,978.07
2019-03-10T00:44:46.249Z,978.04
2019-03-10T00:45:46.240Z,977.97
2019-03-10T00:46:46.210Z,978.00
2019-03-10T00:47:46.271Z,977.92
2019-03-10T00:48:46.192Z,977.92
2019-03-10T00:49:46.252Z,977.93
2019-03-10T00:50:46.172Z,977.96
2019-03-10T00:51:47.163Z,977.90
2019-03-10T00:52:46.143Z,977.87
2019-03-10T00:53:46.174Z,977.97
2019-03-10T00:54:46.194Z,977.95
2019-03-10T00:55:46.114Z,978.02
2019-03-10T00:56:52.835Z,977.91
2019-03-10T00:57:46.089Z,977.92
2019-03-10T00:58:46.115Z,977.94
2019-03-10T00:59:46.126Z,977.93
2019-03-10T01:00:46.057Z,977.93
2019-03-10T01:01:46.117Z,977.87
2019-03-10T01:02:46.047Z,977.90
2019-03-10T01:03:46.074Z,977.87
2019-03-10T01:04:46.051Z,977.84
2019-03-10T01:05:46.012Z,977.92
2019-03-10T01:06:46.071Z,977.87
2019-03-10T01:07:45.990Z,977.91
2019-03-10T01:08:46.003Z,977.88
2019-03-10T01:09:45.963Z,977.86
2019-03-10T01:10:45.971Z,977.82
2019-03-10T01:11:46.011Z,977.83
2019-03-10T01:12:45.931Z,977.85
2019-03-10T01:13:45.942Z,977.80
2019-03-10T01:14:45.913Z,977.79
2019-03-10T01:15:46.953Z,977.84
2019-03-10T01:16:45.874Z,977.75
2019-03-10T01:17:46.935Z,977.80
2019-03-10T01:18:45.864Z,977.80
2019-03-10T01:19:45.857Z,977.89
2019-03-10T01:20:45.855Z,977.86
2019-03-10T01:21:45.816Z,977.92
2019-03-10T01:22:45.808Z,977.87
2019-03-10T01:23:45.820Z,977.82
2019-03-10T01:24:45.807Z,977.84
2019-03-10T01:25:45.897Z,977.88
2019-03-10T01:26:45.775Z,977.86
2019-03-10T01:27:45.788Z,977.86
2019-03-10T01:28:45.744Z,977.86
2019-03-10T01:29:45.839Z,977.86
2019-03-10T01:30:45.729Z,977.86
2019-03-10T01:31:52.310Z,977.91
2019-03-10T01:32:45.700Z,977.85
2019-03-10T01:33:52.353Z,977.85
2019-03-10T01:34:45.671Z,977.80
2019-03-10T01:35:47.723Z,977.82
2019-03-10T01:36:45.651Z,977.82
2019-03-10T01:37:45.642Z,977.76
2019-03-10T01:38:45.633Z,977.79
2019-03-10T01:39:45.703Z,977.76
2019-03-10T01:40:45.623Z,977.70
2019-03-10T01:41:45.644Z,977.67
2019-03-10T01:42:45.585Z,977.68
2019-03-10T01:43:45.575Z,977.66
2019-03-10T01:44:45.644Z,977.60
2019-03-10T01:45:45.565Z,977.61
2019-03-10T01:46:46.615Z,977.52
2019-03-10T01:47:45.537Z,977.54
2019-03-10T01:48:45.527Z,977.45
2019-03-10T01:49:45.518Z,977.48
2019-03-10T01:50:45.607Z,977.52
2019-03-10T01:51:45.498Z,977.45
2019-03-10T01:52:45.511Z,977.39
2019-03-10T01:53:45.475Z,977.28
2019-03-10T01:54:45.459Z,977.23
2019-03-10T01:55:45.550Z,977.27
2019-03-10T01:56:45.442Z,977.21
2019-03-10T01:57:45.533Z,977.21
2019-03-10T01:58:45.411Z,977.19
2019-03-10T01:59:45.402Z,977.16
2019-03-10T02:00:45.392Z,977.14
2019-03-10T02:01:45.443Z,977.17
2019-03-10T02:02:45.365Z,977.22
2019-03-10T02:03:45.447Z,977.12
2019-03-10T02:04:45.334Z,977.20
2019-03-10T02:05:45.354Z,977.16
2019-03-10T02:06:45.348Z,977.18
2019-03-10T02:07:45.315Z,977.17
2019-03-10T02:08:45.375Z,977.19
2019-03-10T02:09:45.286Z,977.07
2019-03-10T02:10:45.286Z,977.16
2019-03-10T02:11:45.257Z,977.05
2019-03-10T02:12:45.347Z,977.02
2019-03-10T02:13:45.237Z,977.05
2019-03-10T02:14:46.308Z,977.09
2019-03-10T02:15:45.230Z,977.10
2019-03-10T02:16:45.202Z,977.12
2019-03-10T02:17:45.189Z,977.07
2019-03-10T02:18:51.811Z,977.12
2019-03-10T02:19:45.171Z,977.14
2019-03-10T02:20:45.242Z,977.06
2019-03-10T02:21:45.151Z,977.03
2019-03-10T02:22:47.171Z,977.10
2019-03-10T02:23:45.122Z,977.01
2019-03-10T02:24:45.162Z,977.04
2019-03-10T02:25:45.113Z,976.96
2019-03-10T02:26:47.143Z,976.91
2019-03-10T02:27:45.085Z,976.94
2019-03-10T02:28:45.134Z,976.92
2019-03-10T02:29:45.070Z,976.89
2019-03-10T02:30:45.138Z,976.96
2019-03-10T02:31:45.046Z,976.94
2019-03-10T02:32:45.030Z,977.01
2019-03-10T02:33:45.027Z,977.00
2019-03-10T02:34:45.047Z,976.99
2019-03-10T02:35:45.021Z,976.93
2019-03-10T02:36:45.096Z,976.87
2019-03-10T02:37:44.979Z,976.86
2019-03-10T02:38:44.976Z,976.95
2019-03-10T02:39:44.995Z,976.91
2019-03-10T02:40:44.984Z,976.84
2019-03-10T02:41:45.049Z,976.78
2019-03-10T02:42:44.920Z,976.84
2019-03-10T02:43:44.912Z,976.82
2019-03-10T02:44:44.902Z,976.76
2019-03-10T02:45:44.942Z,976.75
2019-03-10T02:46:44.886Z,976.70
2019-03-10T02:47:44.932Z,976.67
2019-03-10T02:48:44.854Z,976.58
2019-03-10T02:49:44.833Z,976.58
2019-03-10T02:50:44.874Z,976.52
2019-03-10T02:51:44.815Z,976.53
2019-03-10T02:52:44.874Z,976.46
2019-03-10T02:53:44.785Z,976.45
2019-03-10T02:54:44.774Z,976.39
2019-03-10T02:55:44.785Z,976.39
2019-03-10T02:56:45.865Z,976.32
2019-03-10T02:57:44.745Z,976.33
2019-03-10T02:58:44.794Z,976.35
2019-03-10T02:59:44.717Z,976.34
2019-03-10T03:00:44.728Z,976.34
2019-03-10T03:01:45.810Z,976.35
2019-03-10T03:02:44.688Z,976.33
2019-03-10T03:03:46.761Z,976.23
2019-03-10T03:04:44.669Z,976.31
2019-03-10T03:05:44.670Z,976.27
2019-03-10T03:06:44.641Z,976.23
2019-03-10T03:07:44.690Z,976.19
2019-03-10T03:08:44.623Z,976.19
2019-03-10T03:09:45.647Z,976.17
2019-03-10T03:10:44.632Z,976.26
2019-03-10T03:11:44.663Z,976.21
2019-03-10T03:12:44.574Z,976.19
2019-03-10T03:13:44.594Z,976.05
2019-03-10T03:14:44.555Z,975.97
2019-03-10T03:15:45.665Z,975.91
2019-03-10T03:16:44.648Z,975.83
2019-03-10T03:17:44.529Z,975.81
2019-03-10T03:18:44.546Z,975.88
2019-03-10T03:19:44.507Z,975.86
2019-03-10T03:20:44.580Z,975.88
2019-03-10T03:21:44.499Z,975.89
2019-03-10T03:22:44.507Z,975.84
2019-03-10T03:23:44.468Z,975.76
2019-03-10T03:24:44.574Z,975.75
2019-03-10T03:25:44.439Z,975.73
2019-03-10T03:26:44.528Z,975.73
2019-03-10T03:27:44.449Z,975.76
2019-03-10T03:28:44.409Z,975.72
2019-03-10T03:29:44.490Z,975.66
2019-03-10T03:30:44.381Z,975.62
2019-03-10T03:31:44.472Z,975.66
2019-03-10T03:32:44.392Z,975.70
2019-03-10T03:33:44.353Z,975.64
2019-03-10T03:34:44.443Z,975.66
2019-03-10T03:35:44.323Z,975.65
2019-03-10T03:36:44.407Z,975.59
2019-03-10T03:37:44.296Z,975.58
2019-03-10T03:38:44.284Z,975.52
2019-03-10T03:39:44.367Z,975.48
2019-03-10T03:40:44.266Z,975.52
2019-03-10T03:41:44.368Z,975.50
2019-03-10T03:42:44.235Z,975.54
2019-03-10T03:43:44.226Z,975.52
2019-03-10T03:44:44.226Z,975.52
2019-03-10T03:45:45.299Z,975.49
2019-03-10T03:46:44.207Z,975.44
2019-03-10T03:47:50.859Z,975.43
2019-03-10T03:48:44.171Z,975.39
2019-03-10T03:49:44.176Z,975.36
2019-03-10T03:50:50.859Z,975.34
2019-03-10T03:51:44.160Z,975.30
2019-03-10T03:52:44.142Z,975.29
2019-03-10T03:53:44.122Z,975.29
2019-03-10T03:54:44.100Z,975.32
2019-03-10T03:55:44.090Z,975.26
2019-03-10T03:56:44.214Z,975.24
2019-03-10T03:57:44.074Z,975.19
2019-03-10T03:58:45.178Z,975.20
2019-03-10T03:59:44.054Z,975.16
2019-03-10T04:00:44.093Z,975.12
2019-03-10T04:01:44.054Z,975.11
2019-03-10T04:02:45.055Z,975.08
2019-03-10T04:03:44.015Z,975.08
2019-03-10T04:04:44.075Z,975.05
2019-03-10T04:05:44.035Z,975.06
2019-03-10T04:06:43.995Z,975.02
2019-03-10T04:07:44.067Z,975.02
2019-03-10T04:08:43.956Z,974.98
2019-03-10T04:09:45.027Z,974.99
2019-03-10T04:10:43.937Z,974.96
2019-03-10T04:11:46.038Z,974.89
2019-03-10T04:12:43.908Z,974.86
2019-03-10T04:13:43.978Z,974.83
2019-03-10T04:14:43.889Z,974.90
2019-03-10T04:15:43.909Z,974.84
2019-03-10T04:16:44.950Z,974.89
2019-03-10T04:17:43.860Z,974.89
2019-03-10T04:18:43.920Z,974.85
2019-03-10T04:19:43.835Z,974.83
2019-03-10T04:20:45.901Z,974.87
2019-03-10T04:21:43.867Z,974.89
2019-03-10T04:22:43.797Z,974.83
2019-03-10T04:23:43.856Z,974.88
2019-03-10T04:24:43.764Z,974.81
2019-03-10T04:25:43.796Z,974.84
2019-03-10T04:26:43.766Z,974.80
2019-03-10T04:27:43.735Z,974.77
2019-03-10T04:28:44.827Z,974.73
2019-03-10T04:29:43.717Z,974.77
2019-03-10T04:30:43.737Z,974.77
2019-03-10T04:31:43.735Z,974.72
2019-03-10T04:32:43.691Z,974.68
2019-03-10T04:33:43.667Z,974.76
2019-03-10T04:34:50.358Z,974.76
2019-03-10T04:35:43.661Z,974.78
2019-03-10T04:36:43.691Z,974.78
2019-03-10T04:37:43.618Z,974.72
2019-03-10T04:38:43.678Z,974.71
2019-03-10T04:39:43.599Z,974.71
2019-03-10T04:40:44.641Z,974.71
2019-03-10T04:41:43.631Z,974.63
2019-03-10T04:42:43.651Z,974.64
2019-03-10T04:43:43.551Z,974.63
2019-03-10T04:44:43.593Z,974.60
2019-03-10T04:45:43.543Z,974.57
2019-03-10T04:46:44.592Z,974.60
2019-03-10T04:47:43.523Z,974.56
2019-03-10T04:48:43.518Z,974.62
2019-03-10T04:49:43.494Z,974.64
2019-03-10T04:50:43.504Z,974.58
2019-03-10T04:51:43.494Z,974.64
2019-03-10T04:52:43.534Z,974.67
2019-03-10T04:53:43.455Z,974.63
2019-03-10T04:54:43.474Z,974.63
2019-03-10T04:55:43.429Z,974.62
2019-03-10T04:56:43.459Z,974.63
2019-03-10T04:57:43.406Z,974.64
2019-03-10T04:58:43.448Z,974.62
2019-03-10T04:59:43.407Z,974.62
2019-03-10T05:00:43.378Z,974.60
2019-03-10T05:01:45.438Z,974.52
2019-03-10T05:02:43.348Z,974.51
2019-03-10T05:03:43.389Z,974.50
2019-03-10T05:04:43.350Z,974.43
2019-03-10T05:05:43.310Z,974.42
2019-03-10T05:06:44.350Z,974.39
2019-03-10T05:07:43.291Z,974.36
2019-03-10T05:08:43.321Z,974.36
2019-03-10T05:09:43.261Z,974.31
2019-03-10T05:10:43.362Z,974.30
2019-03-10T05:11:43.252Z,974.27
2019-03-10T05:12:43.293Z,974.19
2019-03-10T05:13:43.227Z,974.21
2019-03-10T05:14:43.237Z,974.23
2019-03-10T05:15:43.194Z,974.20
2019-03-10T05:16:45.255Z,974.14
2019-03-10T05:17:43.174Z,974.07
2019-03-10T05:18:43.205Z,974.05
2019-03-10T05:19:43.156Z,974.05
2019-03-10T05:20:43.136Z,974.03
2019-03-10T05:21:43.131Z,974.02
2019-03-10T05:22:43.216Z,973.95
2019-03-10T05:23:43.126Z,973.91
2019-03-10T05:24:44.138Z,973.90
2019-03-10T05:25:43.088Z,973.89
2019-03-10T05:26:43.150Z,973.87
2019-03-10T05:27:43.082Z,973.82
2019-03-10T05:28:43.090Z,973.80
2019-03-10T05:29:43.053Z,973.72
2019-03-10T05:30:43.131Z,973.66
2019-03-10T05:31:43.101Z,973.70
2019-03-10T05:32:43.031Z,973.67
2019-03-10T05:33:43.032Z,973.61
2019-03-10T05:34:42.996Z,973.60
2019-03-10T05:35:43.072Z,973.52
2019-03-10T05:36:43.044Z,973.55
2019-03-10T05:37:42.985Z,973.54
2019-03-10T05:38:42.973Z,973.59
2019-03-10T05:39:42.936Z,973.51
2019-03-10T05:40:43.005Z,973.41
2019-03-10T05:41:42.914Z,973.27
2019-03-10T05:42:42.995Z,973.20
2019-03-10T05:43:42.885Z,973.22
2019-03-10T05:44:43.906Z,973.19
2019-03-10T05:45:42.866Z,973.17
2019-03-10T05:46:42.918Z,973.17
2019-03-10T05:47:42.848Z,973.14
2019-03-10T05:48:42.858Z,973.10
2019-03-10T05:49:42.828Z,973.01
2019-03-10T05:50:43.908Z,972.92
2019-03-10T05:51:42.788Z,972.84
2019-03-10T05:52:42.799Z,972.82
2019-03-10T05:53:42.770Z,972.77
2019-03-10T05:54:42.860Z,972.80
2019-03-10T05:55:42.751Z,972.73
2019-03-10T05:56:42.792Z,972.68
2019-03-10T05:57:42.751Z,972.77
2019-03-10T05:58:42.712Z,972.68
2019-03-10T05:59:42.803Z,972.69
2019-03-10T06:00:43.421Z,972.72
2019-03-10T06:01:42.733Z,972.78
2019-03-10T06:02:42.684Z,972.83
2019-03-10T06:03:42.654Z,972.82
2019-03-10T06:04:43.664Z,972.87
2019-03-10T06:05:42.635Z,972.89
2019-03-10T06:06:42.676Z,972.89
2019-03-10T06:07:42.627Z,972.93
2019-03-10T06:08:42.597Z,972.89
2019-03-10T06:09:42.587Z,972.87
2019-03-10T06:10:42.657Z,972.77
2019-03-10T06:11:42.582Z,972.73
2019-03-10T06:12:42.638Z,972.65
2019-03-10T06:13:42.561Z,972.57
2019-03-10T06:14:42.539Z,972.53
2019-03-10T06:15:42.598Z,972.58
2019-03-10T06:16:42.522Z,972.60
2019-03-10T06:17:42.580Z,972.72
2019-03-10T06:18:42.505Z,972.72
2019-03-10T06:19:42.491Z,972.73
2019-03-10T06:20:42.472Z,972.76
2019-03-10T06:21:43.532Z,972.74
2019-03-10T06:22:42.472Z,972.75
2019-03-10T06:23:42.543Z,972.74
2019-03-10T06:24:42.434Z,972.72
2019-03-10T06:25:42.423Z,972.64
2019-03-10T06:26:42.444Z,972.62
2019-03-10T06:27:42.404Z,972.63
2019-03-10T06:28:43.404Z,972.68
2019-03-10T06:29:42.375Z,972.61
2019-03-10T06:30:42.355Z,972.58
2019-03-10T06:31:42.346Z,972.64
2019-03-10T06:32:43.416Z,972.63
2019-03-10T06:33:42.316Z,972.56
2019-03-10T06:34:42.387Z,972.55
2019-03-10T06:35:42.359Z,972.58
2019-03-10T06:36:42.289Z,972.55
2019-03-10T06:37:42.328Z,972.48
2019-03-10T06:38:42.269Z,972.54
2019-03-10T06:39:42.332Z,972.51
2019-03-10T06:40:42.240Z,972.52
2019-03-10T06:41:43.279Z,972.47
2019-03-10T06:42:42.230Z,972.53
2019-03-10T06:43:42.311Z,972.38
2019-03-10T06:44:42.189Z,972.44
2019-03-10T06:45:42.231Z,972.44
2019-03-10T06:46:42.172Z,972.38
2019-03-10T06:47:42.212Z,972.38
2019-03-10T06:48:42.152Z,972.36
2019-03-10T06:49:42.204Z,972.37
2019-03-10T06:50:42.134Z,972.32
2019-03-10T06:51:42.138Z,972.28
2019-03-10T06:52:42.136Z,972.37
2019-03-10T06:53:42.165Z,972.30
2019-03-10T06:54:42.085Z,972.29
2019-03-10T06:55:42.116Z,972.27
2019-03-10T06:56:42.068Z,972.26
2019-03-10T06:57:42.099Z,972.22
2019-03-10T06:58:42.047Z,972.22
2019-03-10T06:59:42.091Z,972.20
2019-03-10T07:00:42.020Z,972.17
2019-03-10T07:01:42.130Z,972.13
2019-03-10T07:02:42.019Z,972.19
2019-03-10T07:03:42.059Z,972.12
2019-03-10T07:04:41.981Z,972.12
2019-03-10T07:05:42.017Z,972.09
2019-03-10T07:06:41.961Z,972.06
2019-03-10T07:07:41.960Z,972.02
2019-03-10T07:08:41.948Z,972.03
2019-03-10T07:09:41.962Z,972.02
2019-03-10T07:10:41.912Z,971.99
2019-03-10T07:11:42.923Z,971.99
2019-03-10T07:12:42.014Z,971.92
2019-03-10T07:13:41.874Z,971.89
2019-03-10T07:14:42.934Z,971.84
2019-03-10T07:15:41.836Z,971.76
2019-03-10T07:16:41.944Z,971.77
2019-03-10T07:17:41.851Z,971.72
2019-03-10T07:18:41.805Z,971.69
2019-03-10T07:19:41.846Z,971.66
2019-03-10T07:20:42.309Z,971.67
2019-03-10T07:21:41.887Z,971.58
2019-03-10T07:22:41.776Z,971.51
2019-03-10T07:23:41.761Z,971.51
2019-03-10T07:24:41.778Z,971.51
2019-03-10T07:25:41.742Z,971.54
2019-03-10T07:26:41.820Z,971.47
2019-03-10T07:27:41.711Z,971.43
2019-03-10T07:28:41.790Z,971.38
2019-03-10T07:29:41.694Z,971.44
2019-03-10T07:30:41.792Z,971.39
2019-03-10T07:31:41.672Z,971.39
2019-03-10T07:32:42.765Z,971.36
2019-03-10T07:33:41.662Z,971.32
2019-03-10T07:34:41.631Z,971.33
2019-03-10T07:35:41.623Z,971.26
2019-03-10T07:36:41.693Z,971.27
2019-03-10T07:37:41.614Z,971.30
2019-03-10T07:38:41.685Z,971.27
2019-03-10T07:39:41.584Z,971.20
2019-03-10T07:40:41.665Z,971.13
2019-03-10T07:41:41.568Z,971.08
2019-03-10T07:42:42.644Z,971.08
2019-03-10T07:43:41.541Z,971.04
2019-03-10T07:44:41.527Z,970.96
2019-03-10T07:45:41.519Z,970.93
2019-03-10T07:46:41.577Z,970.87
2019-03-10T07:47:41.500Z,970.81
2019-03-10T07:48:41.569Z,970.75
2019-03-10T07:49:41.479Z,970.72
2019-03-10T07:50:41.470Z,970.71
2019-03-10T07:51:41.440Z,970.67
2019-03-10T07:52:41.490Z,970.65
2019-03-10T07:53:41.450Z,970.59
2019-03-10T07:54:41.420Z,970.62
2019-03-10T07:55:41.412Z,970.56
2019-03-10T07:56:41.465Z,970.60
2019-03-10T07:57:41.382Z,970.56
2019-03-10T07:58:41.435Z,970.58
2019-03-10T07:59:41.353Z,970.53
2019-03-10T08:00:41.424Z,970.50
2019-03-10T08:01:41.394Z,970.40
2019-03-10T08:02:41.314Z,970.38
2019-03-10T08:03:41.364Z,970.30
2019-03-10T08:04:41.285Z,970.22
2019-03-10T08:05:41.366Z,970.25
2019-03-10T08:06:41.338Z,970.17
2019-03-10T08:07:41.267Z,970.16
2019-03-10T08:08:41.317Z,970.15
2019-03-10T08:09:41.248Z,970.04
2019-03-10T08:10:41.299Z,970.00
2019-03-10T08:11:41.218Z,969.94
2019-03-10T08:12:41.240Z,970.04
2019-03-10T08:13:41.208Z,969.98
2019-03-10T08:14:42.199Z,969.92
2019-03-10T08:15:41.191Z,969.84
2019-03-10T08:16:43.270Z,969.85
2019-03-10T08:17:41.151Z,969.82
2019-03-10T08:18:41.192Z,969.61
2019-03-10T08:19:41.132Z,969.61
2019-03-10T08:20:42.222Z,969.60
2019-03-10T08:21:41.103Z,969.51
2019-03-10T08:22:41.093Z,969.53
2019-03-10T08:23:41.103Z,969.51
2019-03-10T08:24:41.164Z,969.45
2019-03-10T08:25:41.075Z,969.44
2019-03-10T08:26:41.107Z,969.42
2019-03-10T08:27:41.050Z,969.43
2019-03-10T08:28:41.047Z,969.45
2019-03-10T08:29:41.098Z,969.34
2019-03-10T08:30:41.017Z,969.26
2019-03-10T08:31:42.321Z,969.31
2019-03-10T08:32:40.998Z,969.34
2019-03-10T08:33:40.988Z,969.30
2019-03-10T08:34:41.048Z,969.28
2019-03-10T08:35:40.959Z,969.29
2019-03-10T08:36:40.979Z,969.34
2019-03-10T08:37:40.939Z,969.29
2019-03-10T08:38:43.248Z,969.16
2019-03-10T08:39:40.917Z,969.08
2019-03-10T08:40:42.081Z,969.02
2019-03-10T08:41:40.891Z,969.00
2019-03-10T08:42:40.992Z,969.03
2019-03-10T08:43:40.892Z,968.91
2019-03-10T08:44:42.952Z,968.82
2019-03-10T08:45:40.833Z,968.87
2019-03-10T08:46:43.003Z,968.88
2019-03-10T08:47:40.816Z,968.83
2019-03-10T08:48:40.895Z,968.85
2019-03-10T08:49:45.195Z,968.78
2019-03-10T08:50:40.934Z,968.66
2019-03-10T08:51:40.766Z,968.60
2019-03-10T08:52:41.897Z,968.56
2019-03-10T08:53:40.747Z,968.60
2019-03-10T08:54:40.778Z,968.51
2019-03-10T08:55:40.731Z,968.49
2019-03-10T08:56:48.408Z,968.46
2019-03-10T08:57:40.732Z,968.48
2019-03-10T08:58:47.420Z,968.39
2019-03-10T08:59:40.697Z,968.39
2019-03-10T09:00:49.400Z,968.36
2019-03-10T09:01:40.659Z,968.34
2019-03-10T09:02:41.773Z,968.28
2019-03-10T09:03:40.631Z,968.24
2019-03-10T09:04:41.752Z,968.23
2019-03-10T09:05:40.612Z,968.29
2019-03-10T09:06:41.755Z,968.20
2019-03-10T09:07:40.602Z,968.21
2019-03-10T09:08:40.773Z,968.25
2019-03-10T09:09:40.584Z,968.17
2019-03-10T09:10:40.544Z,968.19
2019-03-10T09:11:40.544Z,968.10
2019-03-10T09:12:41.655Z,968.04
2019-03-10T09:13:40.535Z,967.97
2019-03-10T09:14:40.764Z,968.00
2019-03-10T09:15:41.234Z,968.04
2019-03-10T09:16:40.477Z,967.87
2019-03-10T09:17:41.597Z,967.84
2019-03-10T09:18:40.477Z,967.88
2019-03-10T09:19:42.598Z,967.80
2019-03-10T09:20:40.451Z,967.76
2019-03-10T09:21:40.419Z,967.75
2019-03-10T09:22:40.442Z,967.73
2019-03-10T09:23:41.500Z,967.73
2019-03-10T09:24:40.423Z,967.69
2019-03-10T09:25:40.506Z,967.66
2019-03-10T09:26:40.381Z,967.69
2019-03-10T09:27:40.577Z,967.60
2019-03-10T09:28:42.536Z,967.63
2019-03-10T09:29:40.363Z,967.64
2019-03-10T09:30:41.474Z,967.63
2019-03-10T09:31:40.315Z,967.64
2019-03-10T09:32:40.314Z,967.57
2019-03-10T09:33:40.805Z,967.54
2019-03-10T09:34:41.469Z,967.51
2019-03-10T09:35:40.264Z,967.48
2019-03-10T09:36:41.376Z,967.48
2019-03-10T09:37:40.276Z,967.50
2019-03-10T09:38:40.240Z,967.44
2019-03-10T09:39:42.353Z,967.39
2019-03-10T09:40:40.197Z,967.34
2019-03-10T09:41:47.968Z,967.38
2019-03-10T09:42:40.199Z,967.26
2019-03-10T09:43:40.189Z,967.06
2019-03-10T09:44:40.169Z,967.09
2019-03-10T09:45:41.261Z,967.17
2019-03-10T09:46:40.151Z,967.11
2019-03-10T09:47:40.290Z,967.04
2019-03-10T09:48:40.133Z,967.02
2019-03-10T09:49:48.932Z,967.00
2019-03-10T09:50:40.132Z,966.99
2019-03-10T09:51:54.913Z,966.99
2019-03-10T09:52:40.083Z,967.01
2019-03-10T09:53:40.063Z,966.97
2019-03-10T09:54:40.064Z,966.95
2019-03-10T09:55:42.134Z,966.95
2019-03-10T09:56:40.045Z,966.87
2019-03-10T09:57:42.136Z,966.89
2019-03-10T09:58:40.016Z,966.90
2019-03-10T09:59:40.016Z,966.87
2019-03-10T10:00:40.037Z,966.89
2019-03-10T10:01:39.986Z,966.77
2019-03-10T10:02:40.027Z,966.64
2019-03-10T10:03:39.958Z,966.65
2019-03-10T10:04:39.938Z,966.66
2019-03-10T10:05:39.959Z,966.60
2019-03-10T10:06:41.029Z,966.64
2019-03-10T10:07:39.932Z,966.63
2019-03-10T10:08:39.920Z,966.64
2019-03-10T10:09:39.901Z,966.65
2019-03-10T10:10:39.891Z,966.67
2019-03-10T10:11:39.944Z,966.68
2019-03-10T10:12:39.853Z,966.78
2019-03-10T10:13:39.852Z,966.77
2019-03-10T10:14:39.837Z,966.80
2019-03-10T10:15:39.842Z,966.81
2019-03-10T10:16:39.984Z,966.74
2019-03-10T10:17:39.814Z,966.63
2019-03-10T10:18:39.807Z,966.58
2019-03-10T10:19:39.785Z,966.54
2019-03-10T10:20:39.786Z,966.48
2019-03-10T10:21:39.756Z,966.45
2019-03-10T10:22:39.786Z,966.33
2019-03-10T10:23:39.737Z,966.38
2019-03-10T10:24:39.827Z,966.34
2019-03-10T10:25:39.728Z,966.33
2019-03-10T10:26:39.698Z,966.43
2019-03-10T10:27:39.708Z,966.49
2019-03-10T10:28:39.679Z,966.25
2019-03-10T10:29:40.684Z,966.18
2019-03-10T10:30:39.683Z,966.29
2019-03-10T10:31:39.640Z,966.41
2019-03-10T10:32:39.660Z,966.34
2019-03-10T10:33:39.622Z,966.34
2019-03-10T10:34:39.705Z,966.34
2019-03-10T10:35:39.625Z,966.35
2019-03-10T10:36:39.592Z,966.33
2019-03-10T10:37:39.583Z,966.32
2019-03-10T10:38:39.674Z,966.41
2019-03-10T10:39:39.535Z,966.37
2019-03-10T10:40:39.644Z,966.35
2019-03-10T10:41:39.536Z,966.33
2019-03-10T10:42:39.515Z,966.25
2019-03-10T10:43:39.605Z,966.25
2019-03-10T10:44:39.496Z,966.23
2019-03-10T10:45:39.587Z,966.23
2019-03-10T10:46:39.499Z,966.19
2019-03-10T10:47:39.468Z,966.23
2019-03-10T10:48:39.558Z,966.17
2019-03-10T10:49:39.440Z,966.09
2019-03-10T10:50:40.559Z,966.06
2019-03-10T10:51:39.439Z,966.05
2019-03-10T10:52:39.411Z,966.23
2019-03-10T10:53:39.491Z,966.15
2019-03-10T10:54:39.473Z,966.14
2019-03-10T10:55:39.369Z,966.02
2019-03-10T10:56:39.381Z,966.04
2019-03-10T10:57:39.364Z,965.98
2019-03-10T10:58:39.434Z,966.03
2019-03-10T10:59:39.344Z,966.12
2019-03-10T11:00:39.414Z,966.19
2019-03-10T11:01:39.309Z,966.16
2019-03-10T11:02:39.394Z,966.21
2019-03-10T11:03:39.286Z,966.10
2019-03-10T11:04:39.347Z,966.12
2019-03-10T11:05:39.296Z,966.08
2019-03-10T11:06:39.277Z,966.10
2019-03-10T11:07:39.261Z,966.08
2019-03-10T11:08:39.221Z,966.09
2019-03-10T11:09:39.217Z,966.15
2019-03-10T11:10:40.308Z,966.19
2019-03-10T11:11:39.203Z,966.13
2019-03-10T11:12:40.200Z,966.02
2019-03-10T11:13:39.190Z,966.13
2019-03-10T11:14:39.160Z,966.13
2019-03-10T11:15:39.231Z,966.06
2019-03-10T11:16:39.141Z,965.93
2019-03-10T11:17:39.222Z,965.94
2019-03-10T11:18:39.122Z,965.81
2019-03-10T11:19:39.122Z,965.82
2019-03-10T11:20:39.114Z,965.71
2019-03-10T11:21:39.193Z,965.62
2019-03-10T11:22:39.084Z,965.64
2019-03-10T11:23:40.154Z,965.74
2019-03-10T11:24:39.055Z,965.70
2019-03-10T11:25:39.057Z,965.60
2019-03-10T11:26:39.027Z,965.66
2019-03-10T11:27:39.106Z,965.58
2019-03-10T11:28:39.007Z,965.45
2019-03-10T11:29:39.037Z,965.36
2019-03-10T11:30:39.007Z,965.46
2019-03-10T11:31:38.979Z,965.42
2019-03-10T11:32:39.039Z,965.28
2019-03-10T11:33:38.952Z,965.31
2019-03-10T11:34:40.010Z,965.22
2019-03-10T11:35:38.909Z,965.16
2019-03-10T11:36:38.971Z,965.27
2019-03-10T11:37:38.902Z,965.27
2019-03-10T11:38:38.953Z,965.30
2019-03-10T11:39:38.872Z,965.27
2019-03-10T11:40:40.942Z,965.28
2019-03-10T11:41:38.895Z,965.27
2019-03-10T11:42:38.853Z,965.35
2019-03-10T11:43:38.884Z,965.36
2019-03-10T11:44:38.827Z,965.39
2019-03-10T11:45:39.851Z,965.39
2019-03-10T11:46:38.835Z,965.27
2019-03-10T11:47:38.809Z,965.26
2019-03-10T11:48:38.810Z,965.23
2019-03-10T11:49:40.859Z,965.23
2019-03-10T11:50:38.757Z,965.24
2019-03-10T11:51:38.887Z,965.41
2019-03-10T11:52:38.748Z,965.34
2019-03-10T11:53:38.741Z,965.34
2019-03-10T11:54:45.398Z,965.40
2019-03-10T11:55:38.784Z,965.28
2019-03-10T11:56:38.830Z,964.93
2019-03-10T11:57:38.665Z,964.92
2019-03-10T11:58:38.680Z,964.80
2019-03-10T11:59:38.672Z,964.87
2019-03-10T12:00:38.754Z,964.91
2019-03-10T12:01:38.653Z,964.97
2019-03-10T12:02:38.683Z,964.94
2019-03-10T12:03:38.626Z,964.92
2019-03-10T12:04:38.593Z,965.05
2019-03-10T12:05:38.685Z,964.93
2019-03-10T12:06:38.592Z,964.88
2019-03-10T12:07:39.644Z,964.88
2019-03-10T12:08:38.556Z,964.80
2019-03-10T12:09:39.587Z,964.71
2019-03-10T12:10:38.536Z,964.63
2019-03-10T12:11:38.637Z,964.42
2019-03-10T12:12:38.516Z,964.21
2019-03-10T12:13:38.527Z,964.13
2019-03-10T12:14:38.498Z,964.22
2019-03-10T12:15:38.478Z,964.18
2019-03-10T12:16:38.580Z,964.15
2019-03-10T12:17:38.463Z,964.11
2019-03-10T12:18:45.431Z,964.18
2019-03-10T12:19:38.441Z,964.24
2019-03-10T12:20:40.451Z,964.25
2019-03-10T12:21:38.442Z,964.24
2019-03-10T12:22:38.442Z,964.17
2019-03-10T12:23:38.393Z,964.15
2019-03-10T12:24:38.485Z,964.18
2019-03-10T12:25:38.374Z,964.12
2019-03-10T12:26:38.379Z,964.01
2019-03-10T12:27:38.346Z,964.04
2019-03-10T12:28:38.445Z,964.04